createdAt,value
2023-01-31T00:04:57.722Z,57.68
2023-01-31T00:07:24.919Z,48.53
2023-01-31T00:09:52.132Z,46.93
2023-01-31T00:12:18.660Z,45.68
2023-01-31T00:14:45.456Z,44.98
2023-01-31T00:17:12.396Z,44.33
2023-01-31T00:19:39.568Z,43.81
2023-01-31T00:22:06.553Z,43.41
2023-01-31T00:24:34.866Z,42.98
2023-01-31T00:27:01.647Z,42.67
2023-01-31T00:29:28.549Z,42.38
2023-01-31T00:31:55.747Z,42.09
2023-01-31T00:34:22.576Z,41.80
2023-01-31T00:36:49.668Z,41.65
2023-01-31T00:39:16.297Z,41.32
2023-01-31T00:41:45.217Z,41.16
2023-01-31T00:44:13.177Z,40.89
2023-01-31T00:46:40.100Z,40.77
2023-01-31T00:49:06.999Z,40.74
2023-01-31T00:51:34.500Z,40.59
2023-01-31T00:54:01.902Z,40.73
2023-01-31T00:56:28.770Z,40.39
2023-01-31T00:58:56.181Z,40.25
2023-01-31T01:01:25.725Z,40.26
2023-01-31T01:03:52.752Z,40.06
2023-01-31T01:06:23.770Z,40.05
2023-01-31T01:16:58.476Z,39.47
2023-01-31T01:19:26.134Z,39.47
2023-01-31T01:21:55.019Z,39.48
2023-01-31T01:24:21.703Z,39.31
2023-01-31T01:26:48.493Z,39.22
2023-01-31T01:29:15.448Z,39.16
2023-01-31T01:31:43.349Z,39.22
2023-01-31T01:34:14.777Z,39.25
2023-01-31T01:36:42.206Z,39.23
2023-01-31T01:39:10.157Z,39.06
2023-01-31T01:41:37.478Z,39.18
2023-01-31T01:44:24.879Z,39.01
2023-01-31T01:46:51.727Z,39.02
2023-01-31T01:49:27.925Z,39.11
2023-01-31T01:51:55.136Z,39.03
2023-01-31T01:54:24.581Z,39.02
2023-01-31T01:56:53.754Z,38.88
2023-01-31T16:04:24.463Z,56.35
2023-01-31T16:06:54.237Z,47.60
2023-01-31T16:09:26.496Z,46.07
2023-01-31T16:11:54.295Z,44.95
2023-01-31T16:14:22.497Z,44.25
2023-01-31T16:16:52.290Z,43.61
2023-01-31T16:19:32.925Z,43.13
2023-01-31T16:21:59.883Z,42.64
2023-01-31T16:24:26.831Z,42.34
2023-01-31T16:27:08.756Z,42.06
2023-01-31T16:29:39.715Z,41.69
2023-01-31T16:32:27.659Z,41.42
2023-01-31T16:35:06.352Z,41.28
2023-01-31T16:37:36.733Z,41.03
2023-01-31T16:40:28.592Z,40.93
2023-01-31T16:43:23.892Z,40.77
2023-01-31T16:45:56.007Z,40.61
2023-01-31T16:48:24.566Z,40.45
2023-01-31T16:50:52.852Z,40.49
2023-01-31T16:53:32.557Z,40.39
2023-01-31T16:56:19.906Z,40.31
2023-01-31T16:58:56.581Z,40.28
2023-01-31T17:01:31.203Z,40.06
2023-01-31T17:04:18.271Z,40.00
2023-01-31T17:06:49.100Z,39.93
2023-01-31T17:09:21.014Z,39.90
2023-01-31T17:11:47.943Z,39.76
2023-01-31T17:14:15.620Z,39.84
2023-01-31T17:16:42.369Z,39.92
2023-01-31T17:19:10.867Z,39.87
2023-01-31T17:21:40.477Z,39.82
2023-01-31T17:24:14.910Z,39.79
2023-01-31T17:26:41.688Z,39.78
2023-01-31T17:29:08.574Z,39.63
2023-01-31T17:31:35.297Z,39.58
2023-01-31T17:34:03.181Z,39.46
2023-01-31T17:36:30.275Z,39.48
2023-01-31T17:38:57.687Z,39.49
2023-01-31T17:41:27.200Z,39.48
2023-01-31T17:43:53.934Z,39.35
2023-01-31T17:46:20.934Z,39.37
2023-01-31T17:48:47.809Z,39.34
2023-01-31T17:51:14.984Z,39.32
2023-01-31T17:53:49.540Z,39.24
2023-01-31T17:56:17.715Z,39.25
2023-01-31T17:58:44.629Z,39.33
2023-01-31T18:01:13.259Z,39.38
2023-01-31T18:03:40.834Z,39.37
2023-01-31T18:06:08.138Z,39.41
2023-01-31T18:08:35.153Z,39.45
2023-01-31T18:11:06.191Z,39.43
2023-01-31T18:13:35.225Z,39.50
2023-01-31T18:16:07.357Z,39.40
2023-01-31T18:18:37.757Z,39.41
2023-01-31T18:21:05.093Z,39.38
2023-01-31T18:23:32.211Z,39.23
2023-01-31T18:25:59.695Z,39.39
2023-01-31T18:28:26.619Z,39.32
2023-01-31T18:30:53.332Z,39.38
2023-01-31T18:33:20.315Z,39.38
2023-01-31T18:35:58.006Z,39.37
2023-01-31T18:38:25.877Z,39.46
2023-01-31T18:40:52.820Z,39.36
2023-01-31T18:43:20.316Z,39.36
2023-01-31T18:45:47.784Z,39.32
2023-01-31T18:48:14.474Z,39.30
2023-01-31T18:50:41.345Z,39.25
2023-01-31T18:53:08.027Z,39.32
2023-01-31T18:55:35.014Z,39.26
2023-01-31T18:58:01.750Z,39.11
2023-01-31T19:00:29.018Z,39.05
2023-01-31T19:02:56.200Z,39.07
2023-01-31T19:05:23.745Z,39.00
2023-01-31T19:07:51.278Z,38.99
2023-01-31T19:10:18.634Z,38.98
2023-01-31T19:12:45.549Z,39.02
2023-01-31T19:15:13.113Z,39.04
2023-01-31T19:17:40.103Z,39.00
2023-01-31T19:20:08.002Z,38.93
2023-01-31T19:22:35.745Z,38.78
2023-01-31T19:25:04.921Z,38.90
2023-01-31T19:27:33.440Z,38.90
2023-01-31T19:30:00.659Z,39.00
2023-01-31T19:32:28.889Z,38.99
2023-01-31T19:34:55.534Z,38.77
